sensor_id;sensor_type;location;lat;lon;timestamp;temperature;humidity
46754;DHT22;32500;50.620;3.400;2023-02-12T00:00:06;15.90;62.10
46754;DHT22;32500;50.620;3.400;2023-02-12T00:02:33;15.90;62.30
46754;DHT22;32500;50.620;3.400;2023-02-12T00:04:58;15.80;62.20
46754;DHT22;32500;50.620;3.400;2023-02-12T00:07:24;15.90;62.30
46754;DHT22;32500;50.620;3.400;2023-02-12T00:09:50;15.90;62.20
46754;DHT22;32500;50.620;3.400;2023-02-12T00:12:15;15.90;62.20
46754;DHT22;32500;50.620;3.400;2023-02-12T00:14:41;15.90;62.00
46754;DHT22;32500;50.620;3.400;2023-02-12T00:17:07;15.80;62.10
46754;DHT22;32500;50.620;3.400;2023-02-12T00:19:32;15.80;62.10
46754;DHT22;32500;50.620;3.400;2023-02-12T00:21:58;15.80;62.10
46754;DHT22;32500;50.620;3.400;2023-02-12T00:24:24;15.80;62.40
46754;DHT22;32500;50.620;3.400;2023-02-12T00:26:50;15.80;62.40
46754;DHT22;32500;50.620;3.400;2023-02-12T00:29:15;15.80;62.20
46754;DHT22;32500;50.620;3.400;2023-02-12T00:31:41;15.80;62.10
46754;DHT22;32500;50.620;3.400;2023-02-12T00:34:09;15.80;62.10
46754;DHT22;32500;50.620;3.400;2023-02-12T00:36:35;15.80;62.00
46754;DHT22;32500;50.620;3.400;2023-02-12T00:39:01;15.80;62.00
46754;DHT22;32500;50.620;3.400;2023-02-12T00:41:27;15.80;61.90
46754;DHT22;32500;50.620;3.400;2023-02-12T00:43:53;15.80;61.80
46754;DHT22;32500;50.620;3.400;2023-02-12T00:46:19;15.80;62.00
46754;DHT22;32500;50.620;3.400;2023-02-12T00:48:44;15.80;62.00
46754;DHT22;32500;50.620;3.400;2023-02-12T00:51:10;15.80;62.00
46754;DHT22;32500;50.620;3.400;2023-02-12T00:53:36;15.80;62.00
46754;DHT22;32500;50.620;3.400;2023-02-12T00:56:02;15.80;62.00
46754;DHT22;32500;50.620;3.400;2023-02-12T00:58:28;15.80;61.80
46754;DHT22;32500;50.620;3.400;2023-02-12T01:00:54;15.80;61.80
46754;DHT22;32500;50.620;3.400;2023-02-12T01:03:19;15.80;61.90
46754;DHT22;32500;50.620;3.400;2023-02-12T01:05:45;15.80;61.80
46754;DHT22;32500;50.620;3.400;2023-02-12T01:08:12;15.80;61.90
46754;DHT22;32500;50.620;3.400;2023-02-12T01:10:39;15.80;61.90
46754;DHT22;32500;50.620;3.400;2023-02-12T01:13:04;15.80;61.90
46754;DHT22;32500;50.620;3.400;2023-02-12T01:15:30;15.80;61.90
46754;DHT22;32500;50.620;3.400;2023-02-12T01:17:56;15.80;62.00
46754;DHT22;32500;50.620;3.400;2023-02-12T01:20:23;15.70;62.00
46754;DHT22;32500;50.620;3.400;2023-02-12T01:22:50;15.70;62.00
46754;DHT22;32500;50.620;3.400;2023-02-12T01:25:16;15.70;62.10
46754;DHT22;32500;50.620;3.400;2023-02-12T01:27:42;15.70;62.10
46754;DHT22;32500;50.620;3.400;2023-02-12T01:30:10;15.70;62.10
46754;DHT22;32500;50.620;3.400;2023-02-12T01:32:36;15.70;62.00
46754;DHT22;32500;50.620;3.400;2023-02-12T01:35:03;15.70;62.00
46754;DHT22;32500;50.620;3.400;2023-02-12T01:37:28;15.70;62.00
46754;DHT22;32500;50.620;3.400;2023-02-12T01:39:54;15.70;62.10
46754;DHT22;32500;50.620;3.400;2023-02-12T01:42:20;15.70;62.10
46754;DHT22;32500;50.620;3.400;2023-02-12T01:47:38;15.70;61.80
46754;DHT22;32500;50.620;3.400;2023-02-12T01:50:07;15.70;61.90
46754;DHT22;32500;50.620;3.400;2023-02-12T01:52:35;15.80;61.80
46754;DHT22;32500;50.620;3.400;2023-02-12T01:55:06;15.70;61.80
46754;DHT22;32500;50.620;3.400;2023-02-12T01:57:35;15.70;61.80
46754;DHT22;32500;50.620;3.400;2023-02-12T02:00:06;15.70;61.70
46754;DHT22;32500;50.620;3.400;2023-02-12T02:02:33;15.70;61.90
46754;DHT22;32500;50.620;3.400;2023-02-12T02:05:01;15.70;61.80
46754;DHT22;32500;50.620;3.400;2023-02-12T02:07:28;15.70;61.80
46754;DHT22;32500;50.620;3.400;2023-02-12T02:09:54;15.70;61.70
46754;DHT22;32500;50.620;3.400;2023-02-12T02:12:20;15.70;61.70
46754;DHT22;32500;50.620;3.400;2023-02-12T02:15:05;15.70;61.80
46754;DHT22;32500;50.620;3.400;2023-02-12T02:17:54;15.60;62.00
46754;DHT22;32500;50.620;3.400;2023-02-12T02:26:31;15.50;62.20
46754;DHT22;32500;50.620;3.400;2023-02-12T02:32:22;15.60;62.00
46754;DHT22;32500;50.620;3.400;2023-02-12T02:37:34;15.60;62.70
46754;DHT22;32500;50.620;3.400;2023-02-12T02:40:23;15.60;61.80
46754;DHT22;32500;50.620;3.400;2023-02-12T02:43:26;15.60;61.80
46754;DHT22;32500;50.620;3.400;2023-02-12T02:46:04;15.60;61.80
46754;DHT22;32500;50.620;3.400;2023-02-12T02:48:37;15.60;61.90
46754;DHT22;32500;50.620;3.400;2023-02-12T02:51:14;15.60;61.80
46754;DHT22;32500;50.620;3.400;2023-02-12T02:53:50;15.60;62.00
46754;DHT22;32500;50.620;3.400;2023-02-12T02:56:19;15.60;61.70
46754;DHT22;32500;50.620;3.400;2023-02-12T02:58:57;15.60;61.80
46754;DHT22;32500;50.620;3.400;2023-02-12T03:01:46;15.60;62.00
46754;DHT22;32500;50.620;3.400;2023-02-12T03:04:21;15.50;61.80
46754;DHT22;32500;50.620;3.400;2023-02-12T03:09:40;15.60;61.90
46754;DHT22;32500;50.620;3.400;2023-02-12T03:12:51;15.60;61.80
46754;DHT22;32500;50.620;3.400;2023-02-12T03:15:48;15.60;61.70
46754;DHT22;32500;50.620;3.400;2023-02-12T03:18:23;15.50;61.80
46754;DHT22;32500;50.620;3.400;2023-02-12T03:20:53;15.50;61.80
46754;DHT22;32500;50.620;3.400;2023-02-12T03:23:30;15.50;61.90
46754;DHT22;32500;50.620;3.400;2023-02-12T03:26:00;15.50;61.90
46754;DHT22;32500;50.620;3.400;2023-02-12T03:28:31;15.50;61.90
46754;DHT22;32500;50.620;3.400;2023-02-12T03:37:12;15.50;61.80
46754;DHT22;32500;50.620;3.400;2023-02-12T03:42:18;15.50;61.90
46754;DHT22;32500;50.620;3.400;2023-02-12T03:44:50;15.50;61.90
46754;DHT22;32500;50.620;3.400;2023-02-12T03:52:41;15.50;61.80
46754;DHT22;32500;50.620;3.400;2023-02-12T03:55:08;15.50;61.80
46754;DHT22;32500;50.620;3.400;2023-02-12T03:57:43;15.50;61.70
46754;DHT22;32500;50.620;3.400;2023-02-12T04:00:16;15.50;61.60
46754;DHT22;32500;50.620;3.400;2023-02-12T04:02:43;15.50;61.70
46754;DHT22;32500;50.620;3.400;2023-02-12T04:05:35;15.50;61.60
46754;DHT22;32500;50.620;3.400;2023-02-12T04:08:04;15.40;61.70
46754;DHT22;32500;50.620;3.400;2023-02-12T04:16:21;15.50;61.70
46754;DHT22;32500;50.620;3.400;2023-02-12T04:18:49;15.40;61.70
46754;DHT22;32500;50.620;3.400;2023-02-12T04:21:42;15.40;61.70
46754;DHT22;32500;50.620;3.400;2023-02-12T04:27:08;15.40;61.70
46754;DHT22;32500;50.620;3.400;2023-02-12T04:32:27;15.40;61.90
46754;DHT22;32500;50.620;3.400;2023-02-12T04:35:08;15.40;61.80
46754;DHT22;32500;50.620;3.400;2023-02-12T04:37:39;15.40;61.90
46754;DHT22;32500;50.620;3.400;2023-02-12T04:40:11;15.40;61.80
46754;DHT22;32500;50.620;3.400;2023-02-12T04:42:44;15.40;61.70
46754;DHT22;32500;50.620;3.400;2023-02-12T04:45:12;15.40;61.60
46754;DHT22;32500;50.620;3.400;2023-02-12T04:47:38;15.40;61.70
46754;DHT22;32500;50.620;3.400;2023-02-12T04:50:04;15.40;61.60
46754;DHT22;32500;50.620;3.400;2023-02-12T04:52:30;15.40;61.70
46754;DHT22;32500;50.620;3.400;2023-02-12T04:54:55;15.40;61.50
46754;DHT22;32500;50.620;3.400;2023-02-12T04:57:21;15.40;61.50
46754;DHT22;32500;50.620;3.400;2023-02-12T04:59:46;15.40;61.60
46754;DHT22;32500;50.620;3.400;2023-02-12T05:02:12;15.40;61.50
46754;DHT22;32500;50.620;3.400;2023-02-12T05:04:38;15.40;61.60
46754;DHT22;32500;50.620;3.400;2023-02-12T05:07:03;15.40;61.70
46754;DHT22;32500;50.620;3.400;2023-02-12T05:09:29;15.40;61.60
46754;DHT22;32500;50.620;3.400;2023-02-12T05:11:55;15.40;61.60
46754;DHT22;32500;50.620;3.400;2023-02-12T05:14:23;15.40;61.60
46754;DHT22;32500;50.620;3.400;2023-02-12T05:16:49;15.40;61.60
46754;DHT22;32500;50.620;3.400;2023-02-12T05:19:15;15.30;61.70
46754;DHT22;32500;50.620;3.400;2023-02-12T05:21:41;15.40;61.60
46754;DHT22;32500;50.620;3.400;2023-02-12T05:24:06;15.40;61.50
46754;DHT22;32500;50.620;3.400;2023-02-12T05:26:32;15.30;61.50
46754;DHT22;32500;50.620;3.400;2023-02-12T05:28:58;15.30;61.50
46754;DHT22;32500;50.620;3.400;2023-02-12T05:31:24;15.30;61.70
46754;DHT22;32500;50.620;3.400;2023-02-12T05:33:49;15.30;61.70
46754;DHT22;32500;50.620;3.400;2023-02-12T05:36:18;15.30;61.70
46754;DHT22;32500;50.620;3.400;2023-02-12T05:38:44;15.30;61.70
46754;DHT22;32500;50.620;3.400;2023-02-12T05:41:15;15.30;61.60
46754;DHT22;32500;50.620;3.400;2023-02-12T05:43:42;15.30;61.50
46754;DHT22;32500;50.620;3.400;2023-02-12T05:46:08;15.30;61.50
46754;DHT22;32500;50.620;3.400;2023-02-12T05:48:35;15.30;62.30
46754;DHT22;32500;50.620;3.400;2023-02-12T05:51:09;15.30;61.40
46754;DHT22;32500;50.620;3.400;2023-02-12T05:53:36;15.30;61.50
46754;DHT22;32500;50.620;3.400;2023-02-12T05:58:39;15.30;61.40
46754;DHT22;32500;50.620;3.400;2023-02-12T06:01:17;15.30;61.50
46754;DHT22;32500;50.620;3.400;2023-02-12T06:03:43;15.30;61.40
46754;DHT22;32500;50.620;3.400;2023-02-12T06:06:09;15.30;61.40
46754;DHT22;32500;50.620;3.400;2023-02-12T06:08:35;15.30;61.20
46754;DHT22;32500;50.620;3.400;2023-02-12T06:11:03;15.40;61.20
46754;DHT22;32500;50.620;3.400;2023-02-12T06:13:30;15.30;61.30
46754;DHT22;32500;50.620;3.400;2023-02-12T06:15:56;15.30;61.30
46754;DHT22;32500;50.620;3.400;2023-02-12T06:18:21;15.30;61.20
46754;DHT22;32500;50.620;3.400;2023-02-12T06:20:47;15.30;61.20
46754;DHT22;32500;50.620;3.400;2023-02-12T06:23:13;15.30;61.30
46754;DHT22;32500;50.620;3.400;2023-02-12T06:25:38;15.30;61.20
46754;DHT22;32500;50.620;3.400;2023-02-12T06:28:04;15.30;61.30
46754;DHT22;32500;50.620;3.400;2023-02-12T06:30:30;15.30;61.30
46754;DHT22;32500;50.620;3.400;2023-02-12T06:32:57;15.30;61.30
46754;DHT22;32500;50.620;3.400;2023-02-12T06:35:23;15.30;61.30
46754;DHT22;32500;50.620;3.400;2023-02-12T06:37:49;15.20;61.30
46754;DHT22;32500;50.620;3.400;2023-02-12T06:40:14;15.30;61.40
46754;DHT22;32500;50.620;3.400;2023-02-12T06:42:40;15.30;61.40
46754;DHT22;32500;50.620;3.400;2023-02-12T06:45:06;15.30;61.50
46754;DHT22;32500;50.620;3.400;2023-02-12T06:47:32;15.30;61.40
46754;DHT22;32500;50.620;3.400;2023-02-12T06:49:57;15.40;60.80
46754;DHT22;32500;50.620;3.400;2023-02-12T06:52:23;15.40;60.80
46754;DHT22;32500;50.620;3.400;2023-02-12T06:54:49;15.30;61.00
46754;DHT22;32500;50.620;3.400;2023-02-12T06:57:14;15.30;61.10
46754;DHT22;32500;50.620;3.400;2023-02-12T06:59:40;15.30;61.00
46754;DHT22;32500;50.620;3.400;2023-02-12T07:02:05;15.30;60.90
46754;DHT22;32500;50.620;3.400;2023-02-12T07:04:31;15.30;61.00
46754;DHT22;32500;50.620;3.400;2023-02-12T07:06:57;15.20;61.20
46754;DHT22;32500;50.620;3.400;2023-02-12T07:09:22;15.20;61.10
46754;DHT22;32500;50.620;3.400;2023-02-12T07:11:48;15.20;61.10
46754;DHT22;32500;50.620;3.400;2023-02-12T07:14:14;15.30;61.20
46754;DHT22;32500;50.620;3.400;2023-02-12T07:16:40;15.30;61.80
46754;DHT22;32500;50.620;3.400;2023-02-12T07:19:06;15.30;61.00
46754;DHT22;32500;50.620;3.400;2023-02-12T07:21:32;15.30;61.00
46754;DHT22;32500;50.620;3.400;2023-02-12T07:23:58;15.20;61.10
46754;DHT22;32500;50.620;3.400;2023-02-12T07:26:24;15.30;61.10
46754;DHT22;32500;50.620;3.400;2023-02-12T07:28:51;15.30;61.10
46754;DHT22;32500;50.620;3.400;2023-02-12T07:31:21;15.40;60.90
46754;DHT22;32500;50.620;3.400;2023-02-12T07:33:48;15.30;61.00
46754;DHT22;32500;50.620;3.400;2023-02-12T07:36:18;15.30;60.80
46754;DHT22;32500;50.620;3.400;2023-02-12T07:38:44;15.20;61.10
46754;DHT22;32500;50.620;3.400;2023-02-12T07:41:21;15.30;61.30
46754;DHT22;32500;50.620;3.400;2023-02-12T07:43:48;15.20;61.20
46754;DHT22;32500;50.620;3.400;2023-02-12T07:46:19;15.20;61.20
46754;DHT22;32500;50.620;3.400;2023-02-12T07:48:46;15.30;61.50
46754;DHT22;32500;50.620;3.400;2023-02-12T07:51:14;15.40;61.10
46754;DHT22;32500;50.620;3.400;2023-02-12T07:53:41;15.40;60.60
46754;DHT22;32500;50.620;3.400;2023-02-12T07:56:15;15.40;60.20
46754;DHT22;32500;50.620;3.400;2023-02-12T07:58:42;15.40;60.00
46754;DHT22;32500;50.620;3.400;2023-02-12T08:01:27;15.40;59.90
46754;DHT22;32500;50.620;3.400;2023-02-12T08:03:56;15.30;60.30
46754;DHT22;32500;50.620;3.400;2023-02-12T08:06:25;15.10;61.70
46754;DHT22;32500;50.620;3.400;2023-02-12T08:08:53;15.00;61.70
46754;DHT22;32500;50.620;3.400;2023-02-12T08:11:19;15.00;62.20
46754;DHT22;32500;50.620;3.400;2023-02-12T08:13:45;15.00;62.30
46754;DHT22;32500;50.620;3.400;2023-02-12T08:16:14;15.00;62.50
46754;DHT22;32500;50.620;3.400;2023-02-12T08:18:41;15.10;62.40
46754;DHT22;32500;50.620;3.400;2023-02-12T08:21:13;15.10;62.10
46754;DHT22;32500;50.620;3.400;2023-02-12T08:23:39;15.00;62.40
46754;DHT22;32500;50.620;3.400;2023-02-12T08:28:37;15.20;62.40
46754;DHT22;32500;50.620;3.400;2023-02-12T08:31:06;15.40;61.90
46754;DHT22;32500;50.620;3.400;2023-02-12T08:33:32;15.40;61.60
46754;DHT22;32500;50.620;3.400;2023-02-12T08:36:05;15.50;61.30
46754;DHT22;32500;50.620;3.400;2023-02-12T08:38:32;15.60;61.40
46754;DHT22;32500;50.620;3.400;2023-02-12T08:41:03;15.60;61.10
46754;DHT22;32500;50.620;3.400;2023-02-12T08:43:29;15.70;60.80
46754;DHT22;32500;50.620;3.400;2023-02-12T08:45:59;15.80;60.60
46754;DHT22;32500;50.620;3.400;2023-02-12T08:48:25;15.90;60.40
46754;DHT22;32500;50.620;3.400;2023-02-12T08:50:50;16.00;60.10
46754;DHT22;32500;50.620;3.400;2023-02-12T08:53:16;16.00;60.00
46754;DHT22;32500;50.620;3.400;2023-02-12T08:55:47;16.10;59.70
46754;DHT22;32500;50.620;3.400;2023-02-12T08:58:14;16.10;59.60
46754;DHT22;32500;50.620;3.400;2023-02-12T09:00:39;16.20;59.50
46754;DHT22;32500;50.620;3.400;2023-02-12T09:03:05;16.20;59.30
46754;DHT22;32500;50.620;3.400;2023-02-12T09:05:30;16.30;59.10
46754;DHT22;32500;50.620;3.400;2023-02-12T09:07:56;16.30;59.10
46754;DHT22;32500;50.620;3.400;2023-02-12T09:10:22;16.40;58.90
46754;DHT22;32500;50.620;3.400;2023-02-12T09:12:47;16.40;58.90
46754;DHT22;32500;50.620;3.400;2023-02-12T09:15:13;16.30;58.80
46754;DHT22;32500;50.620;3.400;2023-02-12T09:17:39;16.40;58.90
46754;DHT22;32500;50.620;3.400;2023-02-12T09:20:07;16.50;59.00
46754;DHT22;32500;50.620;3.400;2023-02-12T09:22:33;16.60;58.90
46754;DHT22;32500;50.620;3.400;2023-02-12T09:25:03;16.70;58.70
46754;DHT22;32500;50.620;3.400;2023-02-12T09:27:29;16.80;58.20
46754;DHT22;32500;50.620;3.400;2023-02-12T09:29:54;16.80;58.10
46754;DHT22;32500;50.620;3.400;2023-02-12T09:32:20;16.90;57.80
46754;DHT22;32500;50.620;3.400;2023-02-12T09:34:46;17.00;57.60
46754;DHT22;32500;50.620;3.400;2023-02-12T09:37:11;17.00;57.60
46754;DHT22;32500;50.620;3.400;2023-02-12T09:39:37;17.00;57.40
46754;DHT22;32500;50.620;3.400;2023-02-12T09:50:26;17.20;57.00
46754;DHT22;32500;50.620;3.400;2023-02-12T09:52:54;17.20;56.90
46754;DHT22;32500;50.620;3.400;2023-02-12T09:55:26;17.30;56.70
46754;DHT22;32500;50.620;3.400;2023-02-12T09:57:53;17.40;56.70
46754;DHT22;32500;50.620;3.400;2023-02-12T10:00:29;17.30;56.50
46754;DHT22;32500;50.620;3.400;2023-02-12T10:03:00;17.30;56.60
46754;DHT22;32500;50.620;3.400;2023-02-12T10:05:36;17.40;56.60
46754;DHT22;32500;50.620;3.400;2023-02-12T10:08:33;17.30;56.90
46754;DHT22;32500;50.620;3.400;2023-02-12T10:11:19;17.30;57.40
46754;DHT22;32500;50.620;3.400;2023-02-12T10:22:17;17.50;57.50
46754;DHT22;32500;50.620;3.400;2023-02-12T10:28:08;17.50;56.70
46754;DHT22;32500;50.620;3.400;2023-02-12T10:33:08;17.60;57.00
46754;DHT22;32500;50.620;3.400;2023-02-12T10:35:44;17.60;56.60
46754;DHT22;32500;50.620;3.400;2023-02-12T10:38:18;17.60;56.50
46754;DHT22;32500;50.620;3.400;2023-02-12T10:40:45;17.60;56.40
46754;DHT22;32500;50.620;3.400;2023-02-12T10:43:12;17.60;56.20
46754;DHT22;32500;50.620;3.400;2023-02-12T10:45:40;17.60;56.20
46754;DHT22;32500;50.620;3.400;2023-02-12T10:48:19;17.70;56.10
46754;DHT22;32500;50.620;3.400;2023-02-12T10:58:31;17.70;56.20
46754;DHT22;32500;50.620;3.400;2023-02-12T11:00:58;17.60;56.10
46754;DHT22;32500;50.620;3.400;2023-02-12T11:03:30;17.70;56.00
46754;DHT22;32500;50.620;3.400;2023-02-12T11:06:17;17.70;55.90
46754;DHT22;32500;50.620;3.400;2023-02-12T11:08:44;17.70;55.90
46754;DHT22;32500;50.620;3.400;2023-02-12T11:11:15;17.70;56.50
46754;DHT22;32500;50.620;3.400;2023-02-12T11:13:46;17.80;55.80
46754;DHT22;32500;50.620;3.400;2023-02-12T11:16:14;17.80;55.70
46754;DHT22;32500;50.620;3.400;2023-02-12T11:19:03;17.80;55.80
46754;DHT22;32500;50.620;3.400;2023-02-12T11:21:30;17.80;55.60
46754;DHT22;32500;50.620;3.400;2023-02-12T11:23:56;17.80;55.60
46754;DHT22;32500;50.620;3.400;2023-02-12T11:26:26;17.80;55.40
46754;DHT22;32500;50.620;3.400;2023-02-12T11:29:00;17.80;55.60
46754;DHT22;32500;50.620;3.400;2023-02-12T11:31:28;17.90;55.40
46754;DHT22;32500;50.620;3.400;2023-02-12T11:36:29;17.90;55.30
46754;DHT22;32500;50.620;3.400;2023-02-12T11:38:57;17.90;55.60
46754;DHT22;32500;50.620;3.400;2023-02-12T11:41:24;17.90;55.20
46754;DHT22;32500;50.620;3.400;2023-02-12T11:43:51;17.90;55.20
46754;DHT22;32500;50.620;3.400;2023-02-12T11:46:20;17.80;55.30
46754;DHT22;32500;50.620;3.400;2023-02-12T11:48:46;17.90;55.10
46754;DHT22;32500;50.620;3.400;2023-02-12T11:51:25;17.90;55.20
46754;DHT22;32500;50.620;3.400;2023-02-12T11:53:54;18.00;55.10
46754;DHT22;32500;50.620;3.400;2023-02-12T11:56:21;18.10;55.00
46754;DHT22;32500;50.620;3.400;2023-02-12T11:58:48;18.10;54.80
46754;DHT22;32500;50.620;3.400;2023-02-12T12:01:19;18.20;54.60
46754;DHT22;32500;50.620;3.400;2023-02-12T12:04:05;18.10;54.40
46754;DHT22;32500;50.620;3.400;2023-02-12T12:06:39;18.20;55.00
46754;DHT22;32500;50.620;3.400;2023-02-12T12:14:32;18.50;54.60
46754;DHT22;32500;50.620;3.400;2023-02-12T12:17:26;18.60;54.20
46754;DHT22;32500;50.620;3.400;2023-02-12T12:20:21;18.70;54.10
46754;DHT22;32500;50.620;3.400;2023-02-12T12:26:19;18.70;54.00
46754;DHT22;32500;50.620;3.400;2023-02-12T12:29:18;18.80;54.00
46754;DHT22;32500;50.620;3.400;2023-02-12T12:31:48;18.80;54.00
46754;DHT22;32500;50.620;3.400;2023-02-12T12:34:24;18.80;54.10
46754;DHT22;32500;50.620;3.400;2023-02-12T12:43:10;19.10;53.30
46754;DHT22;32500;50.620;3.400;2023-02-12T12:56:56;19.20;52.80
46754;DHT22;32500;50.620;3.400;2023-02-12T13:05:18;19.00;53.20
46754;DHT22;32500;50.620;3.400;2023-02-12T13:13:19;19.20;52.80
46754;DHT22;32500;50.620;3.400;2023-02-12T13:16:00;19.30;52.60
46754;DHT22;32500;50.620;3.400;2023-02-12T13:19:51;19.30;52.50
46754;DHT22;32500;50.620;3.400;2023-02-12T13:24:46;19.40;52.40
46754;DHT22;32500;50.620;3.400;2023-02-12T13:27:50;19.40;52.30
46754;DHT22;32500;50.620;3.400;2023-02-12T13:33:17;19.40;52.20
46754;DHT22;32500;50.620;3.400;2023-02-12T13:35:47;19.40;52.10
46754;DHT22;32500;50.620;3.400;2023-02-12T13:39:07;19.30;52.10
46754;DHT22;32500;50.620;3.400;2023-02-12T13:41:13;19.10;52.20
46754;DHT22;32500;50.620;3.400;2023-02-12T13:43:51;19.20;52.00
46754;DHT22;32500;50.620;3.400;2023-02-12T13:52:24;19.50;51.90
46754;DHT22;32500;50.620;3.400;2023-02-12T13:55:06;19.50;52.20
46754;DHT22;32500;50.620;3.400;2023-02-12T13:57:35;19.50;52.50
46754;DHT22;32500;50.620;3.400;2023-02-12T14:00:01;19.60;52.50
46754;DHT22;32500;50.620;3.400;2023-02-12T14:07:49;19.70;52.70
46754;DHT22;32500;50.620;3.400;2023-02-12T14:10:39;19.70;52.70
46754;DHT22;32500;50.620;3.400;2023-02-12T14:15:41;19.70;52.30
46754;DHT22;32500;50.620;3.400;2023-02-12T14:18:22;19.70;51.50
46754;DHT22;32500;50.620;3.400;2023-02-12T14:23:34;19.60;51.70
46754;DHT22;32500;50.620;3.400;2023-02-12T14:26:00;19.60;51.70
46754;DHT22;32500;50.620;3.400;2023-02-12T14:31:21;19.60;51.90
46754;DHT22;32500;50.620;3.400;2023-02-12T14:44:56;19.30;52.60
46754;DHT22;32500;50.620;3.400;2023-02-12T14:49:56;19.20;53.10
46754;DHT22;32500;50.620;3.400;2023-02-12T14:52:28;19.20;53.70
46754;DHT22;32500;50.620;3.400;2023-02-12T14:54:58;19.20;53.20
46754;DHT22;32500;50.620;3.400;2023-02-12T14:57:39;19.10;53.20
46754;DHT22;32500;50.620;3.400;2023-02-12T15:00:39;19.10;53.50
46754;DHT22;32500;50.620;3.400;2023-02-12T15:09:01;19.20;53.60
46754;DHT22;32500;50.620;3.400;2023-02-12T15:11:16;19.10;53.70
46754;DHT22;32500;50.620;3.400;2023-02-12T15:14:03;19.10;54.00
46754;DHT22;32500;50.620;3.400;2023-02-12T15:22:32;19.10;54.40
46754;DHT22;32500;50.620;3.400;2023-02-12T15:25:29;19.10;53.80
46754;DHT22;32500;50.620;3.400;2023-02-12T15:27:57;19.00;53.90
46754;DHT22;32500;50.620;3.400;2023-02-12T15:30:33;19.00;54.10
46754;DHT22;32500;50.620;3.400;2023-02-12T15:33:02;19.00;54.00
46754;DHT22;32500;50.620;3.400;2023-02-12T15:35:31;19.00;54.00
46754;DHT22;32500;50.620;3.400;2023-02-12T15:37:57;19.00;54.20
46754;DHT22;32500;50.620;3.400;2023-02-12T15:40:30;19.00;54.40
46754;DHT22;32500;50.620;3.400;2023-02-12T15:43:05;19.00;54.50
46754;DHT22;32500;50.620;3.400;2023-02-12T15:45:35;19.00;54.50
46754;DHT22;32500;50.620;3.400;2023-02-12T15:48:15;19.00;54.60
46754;DHT22;32500;50.620;3.400;2023-02-12T15:50:55;18.90;54.50
46754;DHT22;32500;50.620;3.400;2023-02-12T15:53:25;18.90;54.60
46754;DHT22;32500;50.620;3.400;2023-02-12T15:55:52;18.90;54.60
46754;DHT22;32500;50.620;3.400;2023-02-12T15:58:27;18.90;54.50
46754;DHT22;32500;50.620;3.400;2023-02-12T16:00:55;19.00;54.40
46754;DHT22;32500;50.620;3.400;2023-02-12T16:03:33;19.00;54.50
46754;DHT22;32500;50.620;3.400;2023-02-12T16:06:07;19.00;54.60
46754;DHT22;32500;50.620;3.400;2023-02-12T16:08:40;19.00;54.50
46754;DHT22;32500;50.620;3.400;2023-02-12T16:11:07;19.00;54.60
46754;DHT22;32500;50.620;3.400;2023-02-12T16:13:46;19.00;54.50
46754;DHT22;32500;50.620;3.400;2023-02-12T16:18:39;19.00;54.40
46754;DHT22;32500;50.620;3.400;2023-02-12T16:21:26;19.00;54.40
46754;DHT22;32500;50.620;3.400;2023-02-12T16:23:52;19.00;54.40
46754;DHT22;32500;50.620;3.400;2023-02-12T16:26:25;19.10;54.50
46754;DHT22;32500;50.620;3.400;2023-02-12T16:28:53;19.10;54.50
46754;DHT22;32500;50.620;3.400;2023-02-12T16:31:22;19.10;54.30
46754;DHT22;32500;50.620;3.400;2023-02-12T16:33:50;19.00;54.30
46754;DHT22;32500;50.620;3.400;2023-02-12T16:38:55;19.10;54.50
46754;DHT22;32500;50.620;3.400;2023-02-12T16:41:27;19.00;54.70
46754;DHT22;32500;50.620;3.400;2023-02-12T16:46:46;19.10;54.90
46754;DHT22;32500;50.620;3.400;2023-02-12T16:49:15;19.00;55.00
46754;DHT22;32500;50.620;3.400;2023-02-12T16:51:42;19.00;55.10
46754;DHT22;32500;50.620;3.400;2023-02-12T16:54:27;19.00;55.20
46754;DHT22;32500;50.620;3.400;2023-02-12T16:56:53;19.00;55.30
46754;DHT22;32500;50.620;3.400;2023-02-12T16:59:19;18.90;55.40
46754;DHT22;32500;50.620;3.400;2023-02-12T17:04:27;18.90;55.50
46754;DHT22;32500;50.620;3.400;2023-02-12T17:06:53;18.90;55.50
46754;DHT22;32500;50.620;3.400;2023-02-12T17:09:18;19.00;55.40
46754;DHT22;32500;50.620;3.400;2023-02-12T17:11:44;18.90;55.40
46754;DHT22;32500;50.620;3.400;2023-02-12T17:14:16;19.00;55.50
46754;DHT22;32500;50.620;3.400;2023-02-12T17:16:42;19.00;55.60
46754;DHT22;32500;50.620;3.400;2023-02-12T17:19:08;18.90;55.60
46754;DHT22;32500;50.620;3.400;2023-02-12T17:21:37;18.90;55.70
46754;DHT22;32500;50.620;3.400;2023-02-12T17:24:17;18.90;55.60
46754;DHT22;32500;50.620;3.400;2023-02-12T17:26:43;18.90;55.70
46754;DHT22;32500;50.620;3.400;2023-02-12T17:29:10;18.90;55.80
46754;DHT22;32500;50.620;3.400;2023-02-12T17:31:35;18.80;55.90
46754;DHT22;32500;50.620;3.400;2023-02-12T17:34:03;18.80;55.90
46754;DHT22;32500;50.620;3.400;2023-02-12T17:36:29;18.80;56.00
46754;DHT22;32500;50.620;3.400;2023-02-12T17:38:54;18.80;56.10
46754;DHT22;32500;50.620;3.400;2023-02-12T17:41:20;18.80;56.10
46754;DHT22;32500;50.620;3.400;2023-02-12T17:43:45;18.80;56.10
46754;DHT22;32500;50.620;3.400;2023-02-12T17:46:14;18.80;56.00
46754;DHT22;32500;50.620;3.400;2023-02-12T17:48:41;18.80;55.90
46754;DHT22;32500;50.620;3.400;2023-02-12T17:51:08;18.80;56.10
46754;DHT22;32500;50.620;3.400;2023-02-12T17:53:34;18.90;56.10
46754;DHT22;32500;50.620;3.400;2023-02-12T17:56:00;18.80;56.10
46754;DHT22;32500;50.620;3.400;2023-02-12T17:58:26;18.80;56.10
46754;DHT22;32500;50.620;3.400;2023-02-12T18:00:51;18.80;56.10
46754;DHT22;32500;50.620;3.400;2023-02-12T18:03:17;18.90;56.20
46754;DHT22;32500;50.620;3.400;2023-02-12T18:05:43;18.90;56.20
46754;DHT22;32500;50.620;3.400;2023-02-12T18:08:09;18.80;56.20
46754;DHT22;32500;50.620;3.400;2023-02-12T18:10:42;18.80;56.20
46754;DHT22;32500;50.620;3.400;2023-02-12T18:13:09;18.90;56.20
46754;DHT22;32500;50.620;3.400;2023-02-12T18:15:35;18.80;56.20
46754;DHT22;32500;50.620;3.400;2023-02-12T18:18:01;18.90;56.20
46754;DHT22;32500;50.620;3.400;2023-02-12T18:20:26;18.90;56.20
46754;DHT22;32500;50.620;3.400;2023-02-12T18:22:52;18.90;56.10
46754;DHT22;32500;50.620;3.400;2023-02-12T18:25:18;18.90;56.20
46754;DHT22;32500;50.620;3.400;2023-02-12T18:27:44;18.90;56.20
46754;DHT22;32500;50.620;3.400;2023-02-12T18:30:10;18.90;56.20
46754;DHT22;32500;50.620;3.400;2023-02-12T18:32:36;18.90;56.20
46754;DHT22;32500;50.620;3.400;2023-02-12T18:35:03;18.90;55.90
46754;DHT22;32500;50.620;3.400;2023-02-12T18:37:29;18.80;56.40
46754;DHT22;32500;50.620;3.400;2023-02-12T18:39:55;18.60;56.70
46754;DHT22;32500;50.620;3.400;2023-02-12T18:42:21;18.70;56.30
46754;DHT22;32500;50.620;3.400;2023-02-12T18:44:46;18.80;57.60
46754;DHT22;32500;50.620;3.400;2023-02-12T18:47:14;18.90;57.20